sensor_id;sensor_type;location;lat;lon;timestamp;P1;durP1;ratioP1;P2;durP2;ratioP2
12519;SDS011;6325;49.540;8.364;2022-11-20T07:06:50;9.57;;;8.67;;
12519;SDS011;6325;49.540;8.364;2022-11-20T07:09:31;9.90;;;9.00;;
12519;SDS011;6325;49.540;8.364;2022-11-20T07:12:09;9.43;;;8.63;;
12519;SDS011;6325;49.540;8.364;2022-11-20T07:14:39;9.90;;;9.00;;
12519;SDS011;6325;49.540;8.364;2022-11-20T07:17:11;9.52;;;8.63;;
12519;SDS011;6325;49.540;8.364;2022-11-20T07:19:52;9.93;;;9.02;;
12519;SDS011;6325;49.540;8.364;2022-11-20T07:22:25;8.93;;;8.13;;
12519;SDS011;6325;49.540;8.364;2022-11-20T07:24:58;9.50;;;8.60;;
12519;SDS011;6325;49.540;8.364;2022-11-20T07:27:26;11.18;;;10.15;;
12519;SDS011;6325;49.540;8.364;2022-11-20T07:29:59;10.77;;;9.75;;
12519;SDS011;6325;49.540;8.364;2022-11-20T07:32:38;9.35;;;8.45;;
12519;SDS011;6325;49.540;8.364;2022-11-20T07:35:17;9.88;;;8.98;;
12519;SDS011;6325;49.540;8.364;2022-11-20T07:37:52;8.82;;;8.02;;
12519;SDS011;6325;49.540;8.364;2022-11-20T07:40:22;11.30;;;10.20;;
12519;SDS011;6325;49.540;8.364;2022-11-20T07:42:52;10.23;;;9.23;;
12519;SDS011;6325;49.540;8.364;2022-11-20T07:45:26;9.93;;;8.95;;
12519;SDS011;6325;49.540;8.364;2022-11-20T07:48:00;9.45;;;8.57;;
12519;SDS011;6325;49.540;8.364;2022-11-20T07:50:44;10.02;;;9.13;;
12519;SDS011;6325;49.540;8.364;2022-11-20T07:53:22;13.05;;;11.68;;
12519;SDS011;6325;49.540;8.364;2022-11-20T07:56:06;12.32;;;11.05;;
12519;SDS011;6325;49.540;8.364;2022-11-20T07:58:41;12.80;;;11.45;;
12519;SDS011;6325;49.540;8.364;2022-11-20T08:01:14;13.40;;;12.00;;
12519;SDS011;6325;49.540;8.364;2022-11-20T08:03:52;12.90;;;11.60;;
12519;SDS011;6325;49.540;8.364;2022-11-20T08:06:22;12.63;;;11.32;;
12519;SDS011;6325;49.540;8.364;2022-11-20T08:08:55;14.45;;;11.95;;
12519;SDS011;6325;49.540;8.364;2022-11-20T08:11:26;11.60;;;10.50;;
12519;SDS011;6325;49.540;8.364;2022-11-20T08:14:16;10.82;;;9.75;;
12519;SDS011;6325;49.540;8.364;2022-11-20T08:16:50;12.00;;;10.88;;
12519;SDS011;6325;49.540;8.364;2022-11-20T08:19:26;12.57;;;11.27;;
12519;SDS011;6325;49.540;8.364;2022-11-20T08:22:00;12.98;;;11.57;;
12519;SDS011;6325;49.540;8.364;2022-11-20T08:24:33;12.18;;;10.88;;
12519;SDS011;6325;49.540;8.364;2022-11-20T08:27:06;12.70;;;11.30;;
12519;SDS011;6325;49.540;8.364;2022-11-20T08:29:42;12.15;;;10.85;;
12519;SDS011;6325;49.540;8.364;2022-11-20T08:32:17;12.73;;;11.43;;
12519;SDS011;6325;49.540;8.364;2022-11-20T08:34:49;13.05;;;11.65;;
12519;SDS011;6325;49.540;8.364;2022-11-20T08:37:24;12.30;;;11.00;;
12519;SDS011;6325;49.540;8.364;2022-11-20T08:40:02;13.05;;;11.65;;
12519;SDS011;6325;49.540;8.364;2022-11-20T08:42:48;12.20;;;10.90;;
12519;SDS011;6325;49.540;8.364;2022-11-20T08:45:21;13.20;;;11.80;;
12519;SDS011;6325;49.540;8.364;2022-11-20T08:48:02;13.25;;;11.85;;
12519;SDS011;6325;49.540;8.364;2022-11-20T08:50:35;13.35;;;11.95;;
12519;SDS011;6325;49.540;8.364;2022-11-20T08:53:05;12.82;;;11.52;;
12519;SDS011;6325;49.540;8.364;2022-11-20T08:55:41;11.95;;;10.73;;
12519;SDS011;6325;49.540;8.364;2022-11-20T08:58:20;11.80;;;10.60;;
12519;SDS011;6325;49.540;8.364;2022-11-20T09:00:52;11.90;;;10.70;;
12519;SDS011;6325;49.540;8.364;2022-11-20T09:03:26;14.18;;;12.73;;
12519;SDS011;6325;49.540;8.364;2022-11-20T09:05:59;14.98;;;13.38;;
12519;SDS011;6325;49.540;8.364;2022-11-20T09:08:29;14.37;;;12.87;;
12519;SDS011;6325;49.540;8.364;2022-11-20T09:11:09;14.13;;;12.65;;
12519;SDS011;6325;49.540;8.364;2022-11-20T09:13:42;12.50;;;11.20;;
12519;SDS011;6325;49.540;8.364;2022-11-20T09:16:09;12.73;;;11.43;;
12519;SDS011;6325;49.540;8.364;2022-11-20T09:18:46;12.20;;;11.00;;
12519;SDS011;6325;49.540;8.364;2022-11-20T09:21:16;12.73;;;11.45;;
12519;SDS011;6325;49.540;8.364;2022-11-20T09:23:45;12.98;;;11.73;;
12519;SDS011;6325;49.540;8.364;2022-11-20T09:26:19;13.50;;;12.18;;
12519;SDS011;6325;49.540;8.364;2022-11-20T09:28:49;12.70;;;11.50;;
12519;SDS011;6325;49.540;8.364;2022-11-20T09:31:21;11.60;;;10.50;;
12519;SDS011;6325;49.540;8.364;2022-11-20T09:33:51;12.93;;;11.63;;
12519;SDS011;6325;49.540;8.364;2022-11-20T09:36:21;13.20;;;11.90;;
12519;SDS011;6325;49.540;8.364;2022-11-20T09:38:53;13.30;;;12.00;;
12519;SDS011;6325;49.540;8.364;2022-11-20T09:41:35;12.73;;;11.45;;
12519;SDS011;6325;49.540;8.364;2022-11-20T09:44:18;11.52;;;10.43;;
12519;SDS011;6325;49.540;8.364;2022-11-20T09:47:00;11.00;;;9.90;;
12519;SDS011;6325;49.540;8.364;2022-11-20T09:49:36;11.75;;;10.57;;
12519;SDS011;6325;49.540;8.364;2022-11-20T09:52:20;13.60;;;12.20;;
12519;SDS011;6325;49.540;8.364;2022-11-20T09:54:57;13.05;;;11.73;;
12519;SDS011;6325;49.540;8.364;2022-11-20T09:57:29;12.83;;;11.53;;
12519;SDS011;6325;49.540;8.364;2022-11-20T10:00:04;12.25;;;11.05;;
12519;SDS011;6325;49.540;8.364;2022-11-20T10:02:37;12.40;;;11.10;;
12519;SDS011;6325;49.540;8.364;2022-11-20T10:05:10;11.32;;;10.23;;
12519;SDS011;6325;49.540;8.364;2022-11-20T10:07:43;11.73;;;10.63;;
12519;SDS011;6325;49.540;8.364;2022-11-20T10:10:22;13.27;;;11.90;;
12519;SDS011;6325;49.540;8.364;2022-11-20T10:13:03;12.73;;;11.48;;
12519;SDS011;6325;49.540;8.364;2022-11-20T10:15:41;11.77;;;10.68;;
12519;SDS011;6325;49.540;8.364;2022-11-20T10:18:24;12.38;;;11.18;;
12519;SDS011;6325;49.540;8.364;2022-11-20T10:21:03;11.40;;;10.30;;
12519;SDS011;6325;49.540;8.364;2022-11-20T10:23:48;10.80;;;9.70;;
12519;SDS011;6325;49.540;8.364;2022-11-20T10:26:40;11.52;;;10.43;;
12519;SDS011;6325;49.540;8.364;2022-11-20T10:29:45;10.70;;;9.60;;
12519;SDS011;6325;49.540;8.364;2022-11-20T10:32:32;20.92;;;18.83;;
12519;SDS011;6325;49.540;8.364;2022-11-20T10:35:29;15.45;;;13.95;;
12519;SDS011;6325;49.540;8.364;2022-11-20T10:38:09;12.70;;;11.40;;
12519;SDS011;6325;49.540;8.364;2022-11-20T10:41:06;10.95;;;9.85;;
12519;SDS011;6325;49.540;8.364;2022-11-20T10:43:58;14.10;;;12.70;;
12519;SDS011;6325;49.540;8.364;2022-11-20T10:46:43;12.82;;;11.55;;
12519;SDS011;6325;49.540;8.364;2022-11-20T10:49:21;11.27;;;10.18;;
12519;SDS011;6325;49.540;8.364;2022-11-20T10:52:13;11.50;;;10.38;;
12519;SDS011;6325;49.540;8.364;2022-11-20T10:54:59;12.20;;;11.00;;
12519;SDS011;6325;49.540;8.364;2022-11-20T10:57:47;12.93;;;11.63;;
12519;SDS011;6325;49.540;8.364;2022-11-20T11:00:49;11.23;;;10.23;;
12519;SDS011;6325;49.540;8.364;2022-11-20T11:03:44;10.93;;;9.90;;
12519;SDS011;6325;49.540;8.364;2022-11-20T11:06:21;11.95;;;10.73;;
12519;SDS011;6325;49.540;8.364;2022-11-20T11:09:19;11.68;;;10.57;;
12519;SDS011;6325;49.540;8.364;2022-11-20T11:12:16;10.40;;;9.40;;
12519;SDS011;6325;49.540;8.364;2022-11-20T11:15:00;11.35;;;10.25;;
12519;SDS011;6325;49.540;8.364;2022-11-20T11:18:04;11.65;;;10.50;;
12519;SDS011;6325;49.540;8.364;2022-11-20T11:20:49;13.57;;;12.23;;
12519;SDS011;6325;49.540;8.364;2022-11-20T11:23:34;12.73;;;11.40;;
12519;SDS011;6325;49.540;8.364;2022-11-20T11:26:18;11.80;;;10.70;;
12519;SDS011;6325;49.540;8.364;2022-11-20T11:29:15;12.68;;;11.43;;
12519;SDS011;6325;49.540;8.364;2022-11-20T11:32:14;12.23;;;11.02;;
12519;SDS011;6325;49.540;8.364;2022-11-20T11:35:02;13.83;;;12.43;;
12519;SDS011;6325;49.540;8.364;2022-11-20T11:37:51;14.57;;;13.07;;
12519;SDS011;6325;49.540;8.364;2022-11-20T11:40:39;14.25;;;12.85;;
12519;SDS011;6325;49.540;8.364;2022-11-20T11:43:25;13.18;;;11.95;;
12519;SDS011;6325;49.540;8.364;2022-11-20T11:49:15;13.50;;;12.15;;
12519;SDS011;6325;49.540;8.364;2022-11-20T11:52:02;13.90;;;12.50;;
12519;SDS011;6325;49.540;8.364;2022-11-20T11:54:59;12.05;;;10.93;;
12519;SDS011;6325;49.540;8.364;2022-11-20T11:57:54;11.10;;;10.10;;
12519;SDS011;6325;49.540;8.364;2022-11-20T12:00:51;13.52;;;12.13;;
12519;SDS011;6325;49.540;8.364;2022-11-20T12:03:49;11.02;;;10.02;;
12519;SDS011;6325;49.540;8.364;2022-11-20T12:06:57;9.90;;;9.00;;
12519;SDS011;6325;49.540;8.364;2022-11-20T12:10:12;13.00;;;11.70;;
12519;SDS011;6325;49.540;8.364;2022-11-20T12:13:14;10.77;;;9.77;;
12519;SDS011;6325;49.540;8.364;2022-11-20T12:16:29;13.18;;;11.88;;
12519;SDS011;6325;49.540;8.364;2022-11-20T12:19:32;12.55;;;11.32;;
12519;SDS011;6325;49.540;8.364;2022-11-20T12:22:26;10.40;;;9.48;;
12519;SDS011;6325;49.540;8.364;2022-11-20T12:25:30;11.02;;;9.93;;
12519;SDS011;6325;49.540;8.364;2022-11-20T12:28:40;11.60;;;10.50;;
12519;SDS011;6325;49.540;8.364;2022-11-20T12:31:36;14.60;;;13.20;;
12519;SDS011;6325;49.540;8.364;2022-11-20T12:37:44;15.60;;;14.20;;
12519;SDS011;6325;49.540;8.364;2022-11-20T12:40:52;12.73;;;11.52;;
12519;SDS011;6325;49.540;8.364;2022-11-20T12:46:55;12.00;;;10.90;;
12519;SDS011;6325;49.540;8.364;2022-11-20T12:49:59;11.38;;;10.35;;
12519;SDS011;6325;49.540;8.364;2022-11-20T12:52:54;11.50;;;10.40;;
12519;SDS011;6325;49.540;8.364;2022-11-20T12:55:47;11.33;;;10.33;;
12519;SDS011;6325;49.540;8.364;2022-11-20T12:58:41;12.32;;;11.13;;
12519;SDS011;6325;49.540;8.364;2022-11-20T13:01:46;11.47;;;10.37;;
12519;SDS011;6325;49.540;8.364;2022-11-20T13:04:38;11.15;;;10.05;;
12519;SDS011;6325;49.540;8.364;2022-11-20T13:07:41;11.25;;;10.20;;
12519;SDS011;6325;49.540;8.364;2022-11-20T13:10:23;11.90;;;10.80;;
12519;SDS011;6325;49.540;8.364;2022-11-20T13:13:22;12.17;;;11.00;;
12519;SDS011;6325;49.540;8.364;2022-11-20T13:16:23;14.30;;;12.90;;
12519;SDS011;6325;49.540;8.364;2022-11-20T13:19:32;12.60;;;11.40;;
12519;SDS011;6325;49.540;8.364;2022-11-20T13:22:42;11.15;;;10.10;;
12519;SDS011;6325;49.540;8.364;2022-11-20T13:25:44;11.90;;;10.80;;
12519;SDS011;6325;49.540;8.364;2022-11-20T13:31:49;10.10;;;7.30;;
12519;SDS011;6325;49.540;8.364;2022-11-20T13:34:50;8.70;;;5.22;;
12519;SDS011;6325;49.540;8.364;2022-11-20T13:37:38;7.63;;;4.40;;
12519;SDS011;6325;49.540;8.364;2022-11-20T13:40:52;4.70;;;3.00;;
12519;SDS011;6325;49.540;8.364;2022-11-20T13:43:47;5.55;;;3.40;;
12519;SDS011;6325;49.540;8.364;2022-11-20T13:46:47;4.45;;;2.95;;
12519;SDS011;6325;49.540;8.364;2022-11-20T13:49:32;3.30;;;2.57;;
12519;SDS011;6325;49.540;8.364;2022-11-20T13:52:35;4.05;;;2.90;;
12519;SDS011;6325;49.540;8.364;2022-11-20T13:55:35;4.38;;;2.67;;
12519;SDS011;6325;49.540;8.364;2022-11-20T13:58:34;5.78;;;3.28;;
12519;SDS011;6325;49.540;8.364;2022-11-20T14:01:30;4.40;;;2.90;;
12519;SDS011;6325;49.540;8.364;2022-11-20T14:04:40;2.35;;;2.15;;
12519;SDS011;6325;49.540;8.364;2022-11-20T14:07:36;4.35;;;3.00;;
12519;SDS011;6325;49.540;8.364;2022-11-20T14:10:37;7.47;;;4.00;;
12519;SDS011;6325;49.540;8.364;2022-11-20T14:13:15;6.47;;;3.40;;
12519;SDS011;6325;49.540;8.364;2022-11-20T14:15:47;5.75;;;2.85;;
12519;SDS011;6325;49.540;8.364;2022-11-20T14:18:27;6.50;;;3.40;;
12519;SDS011;6325;49.540;8.364;2022-11-20T14:21:00;5.65;;;3.28;;
12519;SDS011;6325;49.540;8.364;2022-11-20T14:23:31;5.32;;;3.60;;
12519;SDS011;6325;49.540;8.364;2022-11-20T14:25:59;8.00;;;4.70;;
12519;SDS011;6325;49.540;8.364;2022-11-20T14:28:29;9.38;;;5.00;;
12519;SDS011;6325;49.540;8.364;2022-11-20T14:30:59;11.30;;;5.70;;
12519;SDS011;6325;49.540;8.364;2022-11-20T14:33:29;11.40;;;5.80;;
12519;SDS011;6325;49.540;8.364;2022-11-20T14:36:02;5.90;;;3.55;;
12519;SDS011;6325;49.540;8.364;2022-11-20T14:38:31;5.28;;;3.20;;
12519;SDS011;6325;49.540;8.364;2022-11-20T14:41:18;4.60;;;2.60;;
12519;SDS011;6325;49.540;8.364;2022-11-20T14:44:19;2.60;;;1.67;;
12519;SDS011;6325;49.540;8.364;2022-11-20T14:47:19;8.93;;;3.72;;
12519;SDS011;6325;49.540;8.364;2022-11-20T14:54:08;3.05;;;2.10;;
12519;SDS011;6325;49.540;8.364;2022-11-20T15:00:20;2.08;;;1.88;;
12519;SDS011;6325;49.540;8.364;2022-11-20T15:03:16;2.85;;;1.48;;
12519;SDS011;6325;49.540;8.364;2022-11-20T15:06:33;2.30;;;1.40;;
12519;SDS011;6325;49.540;8.364;2022-11-20T15:20:50;2.28;;;1.77;;
12519;SDS011;6325;49.540;8.364;2022-11-20T15:23:16;1.40;;;1.30;;
12519;SDS011;6325;49.540;8.364;2022-11-20T15:25:45;1.85;;;1.55;;
12519;SDS011;6325;49.540;8.364;2022-11-20T15:28:25;1.80;;;1.70;;
12519;SDS011;6325;49.540;8.364;2022-11-20T15:31:38;2.20;;;1.73;;
12519;SDS011;6325;49.540;8.364;2022-11-20T15:37:11;2.22;;;1.90;;
12519;SDS011;6325;49.540;8.364;2022-11-20T15:39:53;1.83;;;1.73;;
12519;SDS011;6325;49.540;8.364;2022-11-20T15:42:51;1.98;;;1.88;;
12519;SDS011;6325;49.540;8.364;2022-11-20T15:45:58;2.30;;;2.00;;
12519;SDS011;6325;49.540;8.364;2022-11-20T16:02:42;2.08;;;1.80;;
12519;SDS011;6325;49.540;8.364;2022-11-20T16:05:11;2.22;;;1.90;;
12519;SDS011;6325;49.540;8.364;2022-11-20T16:11:39;2.05;;;1.63;;
12519;SDS011;6325;49.540;8.364;2022-11-20T16:14:46;1.80;;;1.70;;
12519;SDS011;6325;49.540;8.364;2022-11-20T16:24:01;2.10;;;1.23;;
12519;SDS011;6325;49.540;8.364;2022-11-20T16:26:36;1.40;;;1.30;;
12519;SDS011;6325;49.540;8.364;2022-11-20T16:32:07;1.42;;;1.33;;
12519;SDS011;6325;49.540;8.364;2022-11-20T16:35:13;1.40;;;1.30;;
12519;SDS011;6325;49.540;8.364;2022-11-20T16:38:49;1.23;;;1.23;;
12519;SDS011;6325;49.540;8.364;2022-11-20T16:45:05;1.55;;;1.30;;
12519;SDS011;6325;49.540;8.364;2022-11-20T16:47:59;2.67;;;1.60;;
12519;SDS011;6325;49.540;8.364;2022-11-20T16:51:08;2.00;;;1.90;;
12519;SDS011;6325;49.540;8.364;2022-11-20T16:54:13;1.70;;;1.60;;
12519;SDS011;6325;49.540;8.364;2022-11-20T17:03:59;1.63;;;1.52;;
12519;SDS011;6325;49.540;8.364;2022-11-20T17:07:43;1.70;;;1.60;;
12519;SDS011;6325;49.540;8.364;2022-11-20T17:10:26;3.20;;;1.63;;
12519;SDS011;6325;49.540;8.364;2022-11-20T17:13:21;1.70;;;1.60;;
12519;SDS011;6325;49.540;8.364;2022-11-20T17:19:47;2.53;;;1.70;;
12519;SDS011;6325;49.540;8.364;2022-11-20T17:22:15;1.90;;;1.80;;
12519;SDS011;6325;49.540;8.364;2022-11-20T17:24:43;1.95;;;1.58;;
12519;SDS011;6325;49.540;8.364;2022-11-20T17:27:11;1.95;;;1.60;;
12519;SDS011;6325;49.540;8.364;2022-11-20T17:29:40;2.10;;;1.60;;
12519;SDS011;6325;49.540;8.364;2022-11-20T17:32:10;3.28;;;2.28;;
12519;SDS011;6325;49.540;8.364;2022-11-20T17:34:39;3.75;;;3.00;;
12519;SDS011;6325;49.540;8.364;2022-11-20T17:37:08;3.30;;;3.00;;
12519;SDS011;6325;49.540;8.364;2022-11-20T17:39:40;3.20;;;2.95;;
12519;SDS011;6325;49.540;8.364;2022-11-20T17:42:08;2.92;;;2.72;;
12519;SDS011;6325;49.540;8.364;2022-11-20T17:44:57;2.95;;;2.60;;
12519;SDS011;6325;49.540;8.364;2022-11-20T17:47:35;4.28;;;3.00;;
12519;SDS011;6325;49.540;8.364;2022-11-20T17:59:02;3.17;;;1.85;;
12519;SDS011;6325;49.540;8.364;2022-11-20T18:01:32;1.90;;;1.80;;
12519;SDS011;6325;49.540;8.364;2022-11-20T18:04:02;2.70;;;1.70;;
12519;SDS011;6325;49.540;8.364;2022-11-20T18:06:31;1.90;;;1.80;;
12519;SDS011;6325;49.540;8.364;2022-11-20T18:09:05;2.15;;;1.73;;
12519;SDS011;6325;49.540;8.364;2022-11-20T18:11:35;2.30;;;1.70;;
12519;SDS011;6325;49.540;8.364;2022-11-20T18:14:07;3.47;;;1.63;;
12519;SDS011;6325;49.540;8.364;2022-11-20T18:16:59;1.60;;;1.50;;
12519;SDS011;6325;49.540;8.364;2022-11-20T18:19:30;1.80;;;1.52;;
12519;SDS011;6325;49.540;8.364;2022-11-20T18:22:01;1.83;;;1.50;;
12519;SDS011;6325;49.540;8.364;2022-11-20T18:24:33;2.17;;;1.70;;
12519;SDS011;6325;49.540;8.364;2022-11-20T18:27:04;1.70;;;1.60;;
12519;SDS011;6325;49.540;8.364;2022-11-20T18:29:37;2.65;;;1.73;;
12519;SDS011;6325;49.540;8.364;2022-11-20T18:32:15;1.77;;;1.50;;
12519;SDS011;6325;49.540;8.364;2022-11-20T18:34:48;2.30;;;1.90;;
12519;SDS011;6325;49.540;8.364;2022-11-20T18:37:18;2.78;;;2.30;;
12519;SDS011;6325;49.540;8.364;2022-11-20T18:39:48;2.72;;;2.30;;
12519;SDS011;6325;49.540;8.364;2022-11-20T18:42:17;2.90;;;2.40;;
12519;SDS011;6325;49.540;8.364;2022-11-20T18:45:02;2.50;;;2.10;;
12519;SDS011;6325;49.540;8.364;2022-11-20T18:47:32;1.80;;;1.70;;
12519;SDS011;6325;49.540;8.364;2022-11-20T18:50:02;2.20;;;1.90;;
12519;SDS011;6325;49.540;8.364;2022-11-20T18:52:39;2.92;;;2.33;;
12519;SDS011;6325;49.540;8.364;2022-11-20T18:55:40;4.07;;;2.33;;
12519;SDS011;6325;49.540;8.364;2022-11-20T18:58:27;2.90;;;2.38;;
12519;SDS011;6325;49.540;8.364;2022-11-20T19:01:24;2.97;;;1.90;;
12519;SDS011;6325;49.540;8.364;2022-11-20T19:04:13;2.95;;;1.75;;
12519;SDS011;6325;49.540;8.364;2022-11-20T19:07:15;2.05;;;1.80;;
12519;SDS011;6325;49.540;8.364;2022-11-20T19:13:14;1.67;;;1.58;;
12519;SDS011;6325;49.540;8.364;2022-11-20T19:15:45;1.67;;;1.58;;
12519;SDS011;6325;49.540;8.364;2022-11-20T19:18:25;2.05;;;1.80;;
12519;SDS011;6325;49.540;8.364;2022-11-20T19:20:54;1.77;;;1.60;;
12519;SDS011;6325;49.540;8.364;2022-11-20T19:23:28;1.60;;;1.50;;
12519;SDS011;6325;49.540;8.364;2022-11-20T19:25:57;2.13;;;1.65;;
12519;SDS011;6325;49.540;8.364;2022-11-20T19:28:26;1.67;;;1.50;;
12519;SDS011;6325;49.540;8.364;2022-11-20T19:31:01;1.65;;;1.20;;
12519;SDS011;6325;49.540;8.364;2022-11-20T19:33:29;1.52;;;1.42;;
12519;SDS011;6325;49.540;8.364;2022-11-20T19:36:06;1.60;;;1.50;;
12519;SDS011;6325;49.540;8.364;2022-11-20T19:38:36;2.70;;;1.87;;
12519;SDS011;6325;49.540;8.364;2022-11-20T19:41:05;1.80;;;1.70;;
12519;SDS011;6325;49.540;8.364;2022-11-20T19:43:38;1.65;;;1.55;;
12519;SDS011;6325;49.540;8.364;2022-11-20T19:46:10;1.77;;;1.50;;
12519;SDS011;6325;49.540;8.364;2022-11-20T19:48:45;1.90;;;1.45;;
12519;SDS011;6325;49.540;8.364;2022-11-20T19:51:13;1.50;;;1.30;;
12519;SDS011;6325;49.540;8.364;2022-11-20T19:53:42;1.70;;;1.60;;
12519;SDS011;6325;49.540;8.364;2022-11-20T19:56:10;1.50;;;1.40;;
12519;SDS011;6325;49.540;8.364;2022-11-20T19:58:55;1.70;;;1.57;;
12519;SDS011;6325;49.540;8.364;2022-11-20T20:01:33;1.40;;;1.20;;
12519;SDS011;6325;49.540;8.364;2022-11-20T20:04:28;1.20;;;1.10;;
12519;SDS011;6325;49.540;8.364;2022-11-20T20:07:18;1.00;;;1.00;;
12519;SDS011;6325;49.540;8.364;2022-11-20T20:09:56;1.20;;;1.10;;
12519;SDS011;6325;49.540;8.364;2022-11-20T20:12:45;1.40;;;1.30;;
12519;SDS011;6325;49.540;8.364;2022-11-20T20:15:22;1.15;;;1.10;;
12519;SDS011;6325;49.540;8.364;2022-11-20T20:18:02;1.00;;;1.00;;
12519;SDS011;6325;49.540;8.364;2022-11-20T20:21:20;1.40;;;1.30;;
12519;SDS011;6325;49.540;8.364;2022-11-20T20:24:05;1.10;;;1.10;;
12519;SDS011;6325;49.540;8.364;2022-11-20T20:26:52;1.20;;;1.20;;
12519;SDS011;6325;49.540;8.364;2022-11-20T20:29:38;1.40;;;1.30;;
12519;SDS011;6325;49.540;8.364;2022-11-20T20:32:13;1.33;;;1.23;;
12519;SDS011;6325;49.540;8.364;2022-11-20T20:34:50;1.30;;;1.20;;
12519;SDS011;6325;49.540;8.364;2022-11-20T20:37:30;1.10;;;1.00;;
12519;SDS011;6325;49.540;8.364;2022-11-20T20:40:25;3.33;;;1.10;;
12519;SDS011;6325;49.540;8.364;2022-11-20T20:43:07;1.30;;;1.20;;
12519;SDS011;6325;49.540;8.364;2022-11-20T20:45:53;1.38;;;1.27;;
12519;SDS011;6325;49.540;8.364;2022-11-20T20:48:30;0.85;;;0.85;;
12519;SDS011;6325;49.540;8.364;2022-11-20T20:51:07;0.90;;;0.90;;
12519;SDS011;6325;49.540;8.364;2022-11-20T20:53:50;1.00;;;1.00;;
12519;SDS011;6325;49.540;8.364;2022-11-20T20:56:29;1.20;;;1.10;;
12519;SDS011;6325;49.540;8.364;2022-11-20T20:58:57;1.17;;;1.17;;
12519;SDS011;6325;49.540;8.364;2022-11-20T21:01:25;1.10;;;1.10;;
12519;SDS011;6325;49.540;8.364;2022-11-20T21:03:55;1.00;;;1.00;;
12519;SDS011;6325;49.540;8.364;2022-11-20T21:06:23;1.25;;;1.10;;
12519;SDS011;6325;49.540;8.364;2022-11-20T21:08:59;1.48;;;1.38;;
12519;SDS011;6325;49.540;8.364;2022-11-20T21:11:42;1.33;;;1.23;;
12519;SDS011;6325;49.540;8.364;2022-11-20T21:14:19;1.40;;;1.30;;
12519;SDS011;6325;49.540;8.364;2022-11-20T21:16:56;1.30;;;1.20;;
12519;SDS011;6325;49.540;8.364;2022-11-20T21:19:47;0.90;;;0.90;;
12519;SDS011;6325;49.540;8.364;2022-11-20T21:22:17;1.00;;;1.00;;
12519;SDS011;6325;49.540;8.364;2022-11-20T21:24:52;0.95;;;0.95;;
12519;SDS011;6325;49.540;8.364;2022-11-20T21:27:31;1.08;;;0.98;;
12519;SDS011;6325;49.540;8.364;2022-11-20T21:30:06;1.00;;;1.00;;
12519;SDS011;6325;49.540;8.364;2022-11-20T21:32:57;1.30;;;1.20;;
12519;SDS011;6325;49.540;8.364;2022-11-20T21:35:37;1.05;;;1.05;;
12519;SDS011;6325;49.540;8.364;2022-11-20T21:38:11;1.00;;;1.00;;
12519;SDS011;6325;49.540;8.364;2022-11-20T21:40:51;1.20;;;1.10;;
12519;SDS011;6325;49.540;8.364;2022-11-20T21:43:28;1.85;;;1.70;;
12519;SDS011;6325;49.540;8.364;2022-11-20T21:46:07;1.50;;;1.40;;
12519;SDS011;6325;49.540;8.364;2022-11-20T21:48:55;1.30;;;1.20;;
12519;SDS011;6325;49.540;8.364;2022-11-20T21:51:32;1.67;;;1.30;;
12519;SDS011;6325;49.540;8.364;2022-11-20T21:54:06;1.20;;;1.10;;
12519;SDS011;6325;49.540;8.364;2022-11-20T21:56:44;1.20;;;1.08;;
12519;SDS011;6325;49.540;8.364;2022-11-20T21:59:18;1.85;;;1.25;;
12519;SDS011;6325;49.540;8.364;2022-11-20T22:01:52;1.70;;;1.20;;
12519;SDS011;6325;49.540;8.364;2022-11-20T22:04:26;1.42;;;1.00;;
12519;SDS011;6325;49.540;8.364;2022-11-20T22:07:13;1.30;;;1.10;;
12519;SDS011;6325;49.540;8.364;2022-11-20T22:09:40;2.63;;;1.50;;
12519;SDS011;6325;49.540;8.364;2022-11-20T22:12:08;3.50;;;1.40;;
12519;SDS011;6325;49.540;8.364;2022-11-20T22:14:35;1.65;;;1.20;;
12519;SDS011;6325;49.540;8.364;2022-11-20T22:17:01;2.83;;;1.40;;
12519;SDS011;6325;49.540;8.364;2022-11-20T22:19:28;2.70;;;1.20;;
12519;SDS011;6325;49.540;8.364;2022-11-20T22:21:55;2.47;;;1.50;;
12519;SDS011;6325;49.540;8.364;2022-11-20T22:24:26;2.40;;;1.33;;
12519;SDS011;6325;49.540;8.364;2022-11-20T22:26:55;1.85;;;1.20;;
12519;SDS011;6325;49.540;8.364;2022-11-20T22:29:25;1.95;;;1.42;;
12519;SDS011;6325;49.540;8.364;2022-11-20T22:31:53;2.40;;;1.35;;
12519;SDS011;6325;49.540;8.364;2022-11-20T22:34:20;2.60;;;1.30;;
12519;SDS011;6325;49.540;8.364;2022-11-20T22:36:49;3.00;;;1.40;;
12519;SDS011;6325;49.540;8.364;2022-11-20T22:39:17;2.00;;;1.30;;
12519;SDS011;6325;49.540;8.364;2022-11-20T22:41:48;2.13;;;1.27;;
12519;SDS011;6325;49.540;8.364;2022-11-20T22:44:18;3.17;;;1.30;;
12519;SDS011;6325;49.540;8.364;2022-11-20T22:46:46;2.22;;;1.30;;
12519;SDS011;6325;49.540;8.364;2022-11-20T22:49:14;1.85;;;1.10;;
12519;SDS011;6325;49.540;8.364;2022-11-20T22:51:42;1.75;;;1.35;;
12519;SDS011;6325;49.540;8.364;2022-11-20T22:54:09;1.83;;;1.20;;
12519;SDS011;6325;49.540;8.364;2022-11-20T22:56:37;2.72;;;1.40;;
12519;SDS011;6325;49.540;8.364;2022-11-20T22:59:08;3.30;;;1.38;;
12519;SDS011;6325;49.540;8.364;2022-11-20T23:01:36;3.58;;;1.30;;
12519;SDS011;6325;49.540;8.364;2022-11-20T23:04:04;4.47;;;1.55;;
12519;SDS011;6325;49.540;8.364;2022-11-20T23:06:34;2.58;;;1.35;;
12519;SDS011;6325;49.540;8.364;2022-11-20T23:09:01;3.05;;;1.48;;
12519;SDS011;6325;49.540;8.364;2022-11-20T23:11:30;3.40;;;1.83;;
12519;SDS011;6325;49.540;8.364;2022-11-20T23:13:59;3.83;;;2.28;;
12519;SDS011;6325;49.540;8.364;2022-11-20T23:16:32;3.15;;;1.63;;
12519;SDS011;6325;49.540;8.364;2022-11-20T23:19:01;2.53;;;1.40;;
12519;SDS011;6325;49.540;8.364;2022-11-20T23:21:30;3.80;;;1.70;;
12519;SDS011;6325;49.540;8.364;2022-11-20T23:23:58;3.75;;;1.50;;
12519;SDS011;6325;49.540;8.364;2022-11-20T23:26:26;3.03;;;1.53;;
12519;SDS011;6325;49.540;8.364;2022-11-20T23:28:59;4.27;;;1.70;;
12519;SDS011;6325;49.540;8.364;2022-11-20T23:31:32;3.80;;;1.50;;
12519;SDS011;6325;49.540;8.364;2022-11-20T23:34:02;4.03;;;1.63;;
12519;SDS011;6325;49.540;8.364;2022-11-20T23:36:31;6.32;;;2.40;;
12519;SDS011;6325;49.540;8.364;2022-11-20T23:38:59;5.63;;;2.78;;
12519;SDS011;6325;49.540;8.364;2022-11-20T23:41:26;5.68;;;2.88;;
12519;SDS011;6325;49.540;8.364;2022-11-20T23:43:54;7.72;;;3.03;;
12519;SDS011;6325;49.540;8.364;2022-11-20T23:46:21;7.57;;;3.92;;
12519;SDS011;6325;49.540;8.364;2022-11-20T23:48:51;6.43;;;2.90;;
12519;SDS011;6325;49.540;8.364;2022-11-20T23:51:19;8.77;;;4.47;;
12519;SDS011;6325;49.540;8.364;2022-11-20T23:53:49;5.22;;;2.58;;
12519;SDS011;6325;49.540;8.364;2022-11-20T23:56:19;5.97;;;3.00;;
12519;SDS011;6325;49.540;8.364;2022-11-20T23:58:53;5.25;;;2.28;;
